CFB Cold Lake
CYOD : now visible

Airfield :











YOU CAN JOIN US ON...

 
LOGIN :

Register | Disclaimer

   EN    FR    IT 

 









Legend :    VFR   Marginal VFR   IFR   Intensive IFR   Very Intensive IFR
Visi :
Ceiling :
>= 8 km
>= 3000ft
5 to 8 km
1000 to 3000 ft
1500m to 5 km
500 to 1000 ft
800 to 1500m
200 to 500 ft
< 800m
< 200 ft
Symbols :   Thunderstorms  Fog  Heavy snow  Heavy precipitations  Wind > 20 kt







- Airport Elevation : 1775 ft
- IATA code : YOD


CYOD - CFB Cold Lake

CURRENT METAR :
  • 211000Z 13006KT 15SM SKC 09/M00 A3001 RMK SLP174

EXPIRED METARs :
  • 210900Z 13007KT 15SM SKC 09/M00 A3001 RMK SLP171
  • 210800Z 13007KT 15SM SKC 10/M00 A3000 RMK SLP169

TAF TAF CYOD
Valid from the 21 at 06:00 until the 22 at 06:00 UTC


210530Z 2106/2206 12006KT P6SM FEW090 FEW250
BECMG 2115/2117 12010KT
FM212100 12012KT P6SM BKN080
BECMG 2201/2203 VRB03KT
BECMG 2204/2206 SCT080 RMK NXT FCST BY 211200Z
CZEG FIR / North America



MET'MAP, your aeronautical weather chart ! - Copyright ORBIFLY December 2007 - Disclaimer

ORBIFLY MET'MAP TEAM :

Programming & Development : Alexandra Zaïnal
Concept & Development : Baudouin d'Aumeries
Co-Development & Prog : Marc-Olivier Méhu
Technical & hardware support : Manuel Goepfert

Contact : metmap@orbifly.com




SOURCES & CREDITS :

   NOAA       Earth
Advisory